createdAt,value
2019-02-14T00:00:39.791Z,18.57
2019-02-14T00:03:09.187Z,18.62
2019-02-14T00:05:38.611Z,18.83
2019-02-14T00:08:08.038Z,17.98
2019-02-14T00:10:37.417Z,18.70
2019-02-14T00:13:06.824Z,17.67
2019-02-14T00:15:36.241Z,19.10
2019-02-14T00:18:05.660Z,19.00
2019-02-14T00:20:35.403Z,18.35
2019-02-14T00:23:06.736Z,19.70
2019-02-14T00:25:36.682Z,20.45
2019-02-14T00:28:06.042Z,19.30
2019-02-14T00:30:35.468Z,20.27
2019-02-14T00:33:05.732Z,19.73
2019-02-14T00:35:35.291Z,18.87
2019-02-14T00:38:04.704Z,18.20
2019-02-14T00:40:34.104Z,19.92
2019-02-14T00:43:03.498Z,20.17
2019-02-14T00:45:34.826Z,19.73
2019-02-14T00:48:04.335Z,19.40
2019-02-14T00:50:33.885Z,18.70
2019-02-14T00:53:03.312Z,19.77
2019-02-14T00:55:32.713Z,19.00
2019-02-14T00:58:02.112Z,18.87
2019-02-14T01:00:31.802Z,20.90
2019-02-14T01:03:01.162Z,19.27
2019-02-14T01:05:33.587Z,20.50
2019-02-14T01:08:02.041Z,19.50
2019-02-14T01:10:31.433Z,20.77
2019-02-14T01:13:00.833Z,22.37
2019-02-14T01:15:30.669Z,21.12
2019-02-14T01:18:00.063Z,21.35
2019-02-14T01:20:29.449Z,19.80
2019-02-14T01:22:58.892Z,23.90
2019-02-14T01:25:28.285Z,23.50
2019-02-14T01:27:58.206Z,22.63
2019-02-14T01:30:27.669Z,22.40
2019-02-14T01:32:57.074Z,22.10
2019-02-14T01:35:26.492Z,25.40
2019-02-14T01:37:56.364Z,22.20
2019-02-14T01:40:28.575Z,23.90
2019-02-14T01:42:57.927Z,23.07
2019-02-14T01:45:29.488Z,22.33
2019-02-14T01:47:58.881Z,21.57
2019-02-14T01:50:28.284Z,21.13
2019-02-14T01:53:00.714Z,21.40
2019-02-14T01:55:30.569Z,23.07
2019-02-14T01:58:01.985Z,22.50
2019-02-14T02:00:34.260Z,22.87
2019-02-14T02:03:03.840Z,20.83
2019-02-14T02:05:33.588Z,21.67
2019-02-14T02:08:03.857Z,21.33
2019-02-14T02:10:33.238Z,22.05
2019-02-14T02:13:03.730Z,20.90
2019-02-14T02:15:33.140Z,21.80
2019-02-14T02:18:03.365Z,22.53
2019-02-14T02:20:33.563Z,20.93
2019-02-14T02:23:04.343Z,20.77
2019-02-14T02:25:33.726Z,19.98
2019-02-14T02:28:03.125Z,19.98
2019-02-14T02:30:33.523Z,18.25
2019-02-14T02:33:03.364Z,18.30
2019-02-14T02:35:37.117Z,17.05
2019-02-14T02:38:08.614Z,18.33
2019-02-14T02:40:38.141Z,17.30
2019-02-14T02:43:08.097Z,18.90
2019-02-14T02:45:41.440Z,20.23
2019-02-14T02:48:10.794Z,19.80
2019-02-14T02:50:40.165Z,19.27
2019-02-14T02:53:10.342Z,22.10
2019-02-14T02:55:39.713Z,20.80
2019-02-14T02:58:09.785Z,21.65
2019-02-14T03:00:39.357Z,21.70
2019-02-14T03:03:09.182Z,22.00
2019-02-14T03:05:38.520Z,21.63
2019-02-14T03:08:07.993Z,20.90
2019-02-14T03:10:37.541Z,21.37
2019-02-14T03:13:06.924Z,21.73
2019-02-14T03:15:36.826Z,20.83
2019-02-14T03:18:06.202Z,20.13
2019-02-14T03:20:36.253Z,23.00
2019-02-14T03:23:05.575Z,22.70
2019-02-14T03:25:35.752Z,23.85
2019-02-14T03:28:05.791Z,23.80
2019-02-14T03:30:35.204Z,23.77
2019-02-14T03:33:04.577Z,22.40
2019-02-14T03:35:36.361Z,22.93
2019-02-14T03:38:08.989Z,21.87
2019-02-14T03:40:38.400Z,22.50
2019-02-14T03:43:09.719Z,20.47
2019-02-14T03:45:38.967Z,21.17
2019-02-14T03:48:08.372Z,18.70
2019-02-14T03:50:37.823Z,20.20
2019-02-14T03:53:08.350Z,22.05
2019-02-14T03:55:38.762Z,25.87
2019-02-14T03:58:08.158Z,29.03
2019-02-14T04:00:38.335Z,26.37
2019-02-14T04:03:08.663Z,25.00
2019-02-14T04:05:38.299Z,22.73
2019-02-14T04:08:08.334Z,21.10
2019-02-14T04:10:37.709Z,20.90
2019-02-14T04:13:08.218Z,21.30
2019-02-14T04:15:38.030Z,20.33
2019-02-14T04:18:07.457Z,20.97
2019-02-14T04:20:38.218Z,17.90
2019-02-14T04:23:10.829Z,19.33
2019-02-14T04:25:40.533Z,18.33
2019-02-14T04:28:10.818Z,16.60
2019-02-14T04:30:40.572Z,17.77
2019-02-14T04:33:11.582Z,16.37
2019-02-14T04:35:40.960Z,17.43
2019-02-14T04:38:10.392Z,20.57
2019-02-14T04:40:39.877Z,21.87
2019-02-14T04:43:09.868Z,17.43
2019-02-14T04:45:40.001Z,16.60
2019-02-14T04:48:12.791Z,16.37
2019-02-14T04:50:42.133Z,15.98
2019-02-14T04:53:12.409Z,15.90
2019-02-14T04:55:43.047Z,15.17
2019-02-14T04:58:12.564Z,24.27
2019-02-14T05:00:43.099Z,23.27
2019-02-14T05:03:13.828Z,66.00
2019-02-14T05:05:43.824Z,63.30
2019-02-14T05:08:13.661Z,72.73
2019-02-14T05:10:43.663Z,50.20
2019-02-14T05:13:13.037Z,28.50
2019-02-14T05:15:42.445Z,19.80
2019-02-14T05:18:11.848Z,17.80
2019-02-14T05:20:41.249Z,16.37
2019-02-14T05:23:10.645Z,16.27
2019-02-14T05:25:40.377Z,18.27
2019-02-14T05:28:09.841Z,19.40
2019-02-14T05:30:42.582Z,20.67
2019-02-14T05:33:11.923Z,19.10
2019-02-14T05:35:41.773Z,20.00
2019-02-14T05:38:13.485Z,20.17
2019-02-14T05:40:42.936Z,23.20
2019-02-14T05:43:12.267Z,23.33
2019-02-14T05:45:42.886Z,25.77
2019-02-14T05:48:13.670Z,24.63
2019-02-14T05:50:43.792Z,24.57
2019-02-14T05:53:13.216Z,26.60
2019-02-14T05:55:42.622Z,22.57
2019-02-14T05:58:12.333Z,21.73
2019-02-14T06:00:41.789Z,20.73
2019-02-14T06:03:11.892Z,21.07
2019-02-14T06:05:41.634Z,22.00
2019-02-14T06:08:11.684Z,21.50
2019-02-14T06:10:41.401Z,22.95
2019-02-14T06:13:11.634Z,24.30
2019-02-14T06:15:49.571Z,23.50
2019-02-14T06:18:18.949Z,37.20
2019-02-14T06:20:48.809Z,26.80
2019-02-14T06:23:21.371Z,23.20
2019-02-14T06:25:51.326Z,22.23
2019-02-14T06:28:21.296Z,24.40
2019-02-14T06:30:51.093Z,23.97
2019-02-14T06:33:24.035Z,25.70
2019-02-14T06:35:54.338Z,23.30
2019-02-14T06:38:25.336Z,24.57
2019-02-14T06:40:55.865Z,29.13
2019-02-14T06:43:25.177Z,29.40
2019-02-14T06:45:58.241Z,26.97
2019-02-14T06:48:28.602Z,26.30
2019-02-14T06:50:57.939Z,22.30
2019-02-14T06:53:31.527Z,22.13
2019-02-14T06:56:02.018Z,19.97
2019-02-14T06:58:39.130Z,22.93
2019-02-14T07:01:08.897Z,24.27
2019-02-14T07:03:38.943Z,24.23
2019-02-14T07:06:08.346Z,23.33
2019-02-14T07:08:38.073Z,23.47
2019-02-14T07:11:07.916Z,22.37
2019-02-14T07:13:38.315Z,24.53
2019-02-14T07:16:12.888Z,27.67
2019-02-14T07:18:43.050Z,22.50
2019-02-14T07:21:13.868Z,27.83
2019-02-14T07:23:44.242Z,27.40
2019-02-14T07:26:14.751Z,23.00
2019-02-14T07:28:44.239Z,20.90
2019-02-14T07:31:19.662Z,20.23
2019-02-14T07:33:51.961Z,22.95
2019-02-14T07:36:21.545Z,22.80
2019-02-14T07:38:51.646Z,21.70
2019-02-14T07:41:23.849Z,23.38
2019-02-14T07:43:53.220Z,24.23
2019-02-14T07:46:23.092Z,23.37
2019-02-14T07:48:52.509Z,23.20
2019-02-14T07:51:22.934Z,25.62
2019-02-14T07:53:52.697Z,22.67
2019-02-14T07:56:22.748Z,26.06
2019-02-14T07:58:53.323Z,27.15
2019-02-14T08:01:23.758Z,26.93
2019-02-14T08:03:54.248Z,24.90
2019-02-14T08:06:24.021Z,23.60
2019-02-14T08:08:53.878Z,23.77
2019-02-14T08:11:24.343Z,22.20
2019-02-14T08:13:54.316Z,22.13
2019-02-14T08:16:25.718Z,20.20
2019-02-14T08:18:56.255Z,22.95
2019-02-14T08:21:29.126Z,20.63
2019-02-14T08:23:59.773Z,16.90
2019-02-14T08:26:34.194Z,17.82
2019-02-14T08:29:04.001Z,17.17
2019-02-14T08:31:39.742Z,15.37
2019-02-14T08:34:11.022Z,15.65
2019-02-14T08:36:41.007Z,14.20
2019-02-14T08:39:11.534Z,15.30
2019-02-14T08:41:41.970Z,14.60
2019-02-14T08:44:11.507Z,13.93
2019-02-14T08:46:41.891Z,15.10
2019-02-14T08:49:13.818Z,13.60
2019-02-14T08:51:47.592Z,12.30
2019-02-14T08:54:17.859Z,10.60
2019-02-14T08:56:47.349Z,9.67
2019-02-14T08:59:18.824Z,9.03
2019-02-14T09:01:48.321Z,7.60
2019-02-14T09:04:19.226Z,8.90
2019-02-14T09:06:48.934Z,8.50
2019-02-14T09:09:18.529Z,7.93
2019-02-14T09:11:52.274Z,8.90
2019-02-14T09:14:21.812Z,8.98
2019-02-14T09:16:54.983Z,9.13
2019-02-14T09:19:25.368Z,7.90
2019-02-14T09:21:55.501Z,10.33
2019-02-14T09:24:26.061Z,9.57
2019-02-14T09:26:57.180Z,8.70
2019-02-14T09:29:28.035Z,9.30
2019-02-14T09:31:58.163Z,9.07
2019-02-14T09:34:29.269Z,9.97
2019-02-14T09:36:58.682Z,9.30
2019-02-14T09:39:30.538Z,9.40
2019-02-14T09:41:59.913Z,9.83
2019-02-14T09:44:31.789Z,9.70
2019-02-14T09:47:01.208Z,10.80
2019-02-14T09:49:30.601Z,10.57
2019-02-14T09:52:00.090Z,11.20
2019-02-14T09:54:29.521Z,10.50
2019-02-14T09:56:58.934Z,10.10
2019-02-14T09:59:29.657Z,9.87
2019-02-14T10:02:00.169Z,9.70
2019-02-14T10:04:29.557Z,10.50
2019-02-14T10:07:01.878Z,10.50
2019-02-14T10:09:32.440Z,9.97
2019-02-14T10:12:04.414Z,10.20
2019-02-14T10:14:34.184Z,10.13
2019-02-14T10:17:04.123Z,9.57
2019-02-14T10:19:33.651Z,9.50
2019-02-14T10:22:03.640Z,9.60
2019-02-14T10:24:33.015Z,10.37
2019-02-14T10:27:04.341Z,10.60
2019-02-14T10:29:33.509Z,9.13
2019-02-14T10:32:03.632Z,10.83
2019-02-14T10:34:33.611Z,10.90
2019-02-14T10:37:06.802Z,10.50
2019-02-14T10:39:37.241Z,9.37
2019-02-14T10:42:06.632Z,10.30
2019-02-14T10:44:36.986Z,11.20
2019-02-14T10:47:07.561Z,10.30
2019-02-14T10:49:37.739Z,11.00
2019-02-14T10:52:07.127Z,11.53
2019-02-14T10:54:37.149Z,12.10
2019-02-14T10:57:06.525Z,12.50
2019-02-14T10:59:36.001Z,12.43
2019-02-14T11:02:10.397Z,12.57
2019-02-14T11:04:40.247Z,13.40
2019-02-14T11:07:11.299Z,13.43
2019-02-14T11:09:40.713Z,13.10
2019-02-14T11:12:10.097Z,12.70
2019-02-14T11:14:40.295Z,14.80
2019-02-14T11:17:10.717Z,13.10
2019-02-14T11:19:40.031Z,13.77
2019-02-14T11:22:09.438Z,14.43
2019-02-14T11:24:38.913Z,14.60
2019-02-14T11:27:08.684Z,14.93
2019-02-14T11:29:38.087Z,15.53
2019-02-14T11:32:07.684Z,15.00
2019-02-14T11:34:37.061Z,15.40
2019-02-14T11:37:06.585Z,16.03
2019-02-14T11:39:36.420Z,15.10
2019-02-14T11:42:05.814Z,15.47
2019-02-14T11:44:39.810Z,15.15
2019-02-14T11:47:07.800Z,15.50
2019-02-14T11:49:37.465Z,15.73
2019-02-14T11:52:06.935Z,14.83
2019-02-14T11:54:39.449Z,16.47
2019-02-14T11:57:09.175Z,16.30
2019-02-14T11:59:40.537Z,16.40
2019-02-14T12:02:10.017Z,19.60
2019-02-14T12:04:39.598Z,17.63
2019-02-14T12:07:09.077Z,18.10
2019-02-14T12:09:38.861Z,16.93
2019-02-14T12:12:08.350Z,17.33
2019-02-14T12:14:37.874Z,17.70
2019-02-14T12:17:07.633Z,18.30
2019-02-14T12:19:39.497Z,17.27
2019-02-14T12:22:10.918Z,15.00
2019-02-14T12:24:41.333Z,14.20
2019-02-14T12:27:12.992Z,15.60
2019-02-14T12:29:42.305Z,15.27
2019-02-14T12:32:13.247Z,13.57
2019-02-14T12:34:44.811Z,15.27
2019-02-14T12:37:28.904Z,13.08
2019-02-14T12:39:46.830Z,14.73
2019-02-14T12:42:17.171Z,14.60
2019-02-14T12:44:47.669Z,13.77
2019-02-14T12:47:19.009Z,14.07
2019-02-14T12:49:52.295Z,14.63
2019-02-14T12:52:22.120Z,14.78
2019-02-14T12:54:51.703Z,14.67
2019-02-14T12:57:24.555Z,14.37
2019-02-14T12:59:58.144Z,15.00
2019-02-14T13:02:28.818Z,13.83
2019-02-14T13:04:58.268Z,16.73
2019-02-14T13:07:30.450Z,14.33
2019-02-14T13:09:59.860Z,14.37
2019-02-14T13:12:29.251Z,13.10
2019-02-14T13:14:58.608Z,13.97
2019-02-14T13:17:28.125Z,13.45
2019-02-14T13:19:57.506Z,14.13
2019-02-14T13:22:27.895Z,13.22
2019-02-14T13:24:58.870Z,14.10
2019-02-14T13:27:28.421Z,14.13
2019-02-14T13:29:57.955Z,14.03
2019-02-14T13:32:29.018Z,14.68
2019-02-14T13:34:58.445Z,14.30
2019-02-14T13:37:28.622Z,13.53
2019-02-14T13:39:58.858Z,15.93
2019-02-14T13:42:29.157Z,14.10
2019-02-14T13:44:58.691Z,14.13
2019-02-14T13:47:28.635Z,14.00
2019-02-14T13:49:58.016Z,13.58
2019-02-14T13:52:27.551Z,14.23
2019-02-14T13:54:56.954Z,14.20
2019-02-14T13:57:26.397Z,14.30
2019-02-14T13:59:55.772Z,13.53
2019-02-14T14:02:27.126Z,14.18
2019-02-14T14:04:56.213Z,14.07
2019-02-14T14:07:39.919Z,14.63
2019-02-14T14:10:03.388Z,13.73
2019-02-14T14:12:36.092Z,14.57
2019-02-14T14:15:06.603Z,13.80
2019-02-14T14:17:37.478Z,14.83
2019-02-14T14:20:07.078Z,14.60
2019-02-14T14:22:36.830Z,15.10
2019-02-14T14:25:08.058Z,13.63
2019-02-14T14:27:37.453Z,13.43
2019-02-14T14:30:08.769Z,14.07
2019-02-14T14:32:38.720Z,13.55
2019-02-14T14:35:08.341Z,12.05
2019-02-14T14:37:38.302Z,14.47
2019-02-14T14:40:09.377Z,14.00
2019-02-14T14:43:04.985Z,13.00
2019-02-14T14:46:04.446Z,14.18
2019-02-14T14:48:37.841Z,13.60
2019-02-14T14:51:07.294Z,13.50
2019-02-14T14:53:37.584Z,13.60
2019-02-14T14:56:11.808Z,13.80
2019-02-14T14:58:41.269Z,13.23
2019-02-14T15:01:11.060Z,13.90
2019-02-14T15:03:41.841Z,14.23
2019-02-14T15:06:11.332Z,13.98
2019-02-14T15:08:40.766Z,13.20
2019-02-14T15:11:11.668Z,14.10
2019-02-14T15:13:41.252Z,13.35
2019-02-14T15:16:10.670Z,12.43
2019-02-14T15:18:40.078Z,12.28
2019-02-14T15:21:09.560Z,12.20
2019-02-14T15:23:39.204Z,11.27
2019-02-14T15:26:08.621Z,12.97
2019-02-14T15:28:38.229Z,13.57
2019-02-14T15:31:08.276Z,12.80
2019-02-14T15:33:38.444Z,12.43
2019-02-14T15:36:10.585Z,12.80
2019-02-14T15:38:41.177Z,12.67
2019-02-14T15:41:10.884Z,12.57
2019-02-14T15:43:40.536Z,12.50
2019-02-14T15:46:13.723Z,12.80
2019-02-14T15:48:43.604Z,13.10
2019-02-14T15:51:15.792Z,14.50
2019-02-14T15:53:46.258Z,14.68
2019-02-14T15:56:15.813Z,14.93
2019-02-14T15:58:45.295Z,14.67
2019-02-14T16:01:16.589Z,13.88
2019-02-14T16:03:50.611Z,13.27
2019-02-14T16:06:22.446Z,15.30
2019-02-14T16:08:52.025Z,17.70
2019-02-14T16:11:21.496Z,21.60
2019-02-14T16:13:52.849Z,15.37
2019-02-14T16:16:25.686Z,15.93
2019-02-14T16:18:55.333Z,14.55
2019-02-14T16:21:24.937Z,16.30
2019-02-14T16:23:57.253Z,16.43
2019-02-14T16:26:26.320Z,16.77
2019-02-14T16:28:56.697Z,17.40
2019-02-14T16:31:27.405Z,19.17
2019-02-14T16:33:56.953Z,18.23
2019-02-14T16:36:27.047Z,18.13
2019-02-14T16:38:58.700Z,18.93
2019-02-14T16:41:30.072Z,19.10
2019-02-14T16:43:59.461Z,19.13
2019-02-14T16:46:29.004Z,20.20
2019-02-14T16:48:58.944Z,20.40
2019-02-14T16:51:34.164Z,21.13
2019-02-14T16:54:04.174Z,23.13
2019-02-14T16:56:34.059Z,21.20
2019-02-14T16:59:03.698Z,21.77
2019-02-14T17:01:33.893Z,22.53
2019-02-14T17:04:03.428Z,21.23
2019-02-14T17:06:32.893Z,21.17
2019-02-14T17:09:03.028Z,19.00
2019-02-14T17:11:33.308Z,21.67
2019-02-14T17:14:04.149Z,22.90
2019-02-14T17:16:34.212Z,22.20
2019-02-14T17:19:04.460Z,25.20
2019-02-14T17:21:33.815Z,28.60
2019-02-14T17:24:06.544Z,28.60
2019-02-14T17:26:36.883Z,26.80
2019-02-14T17:29:06.788Z,26.77
2019-02-14T17:31:40.339Z,24.20
2019-02-14T17:34:09.750Z,24.07
2019-02-14T17:36:41.865Z,21.95
2019-02-14T17:39:11.823Z,25.27
2019-02-14T17:41:42.789Z,28.50
2019-02-14T17:44:13.461Z,27.70
2019-02-14T17:46:43.494Z,25.20
2019-02-14T17:49:12.928Z,37.07
2019-02-14T17:51:42.339Z,26.87
2019-02-14T17:54:13.381Z,27.07
2019-02-14T17:56:42.737Z,24.37
2019-02-14T17:59:12.133Z,23.65
2019-02-14T18:01:41.640Z,21.70
2019-02-14T18:04:11.161Z,21.90
2019-02-14T18:06:41.520Z,21.63
2019-02-14T18:09:11.310Z,23.83
2019-02-14T18:11:40.796Z,33.23
2019-02-14T18:14:10.236Z,27.53
2019-02-14T18:16:39.681Z,28.17
2019-02-14T18:19:09.947Z,28.73
2019-02-14T18:21:41.779Z,30.77
2019-02-14T18:24:13.476Z,28.00
2019-02-14T18:26:44.376Z,26.23
2019-02-14T18:29:14.807Z,26.27
2019-02-14T18:31:44.173Z,26.20
2019-02-14T18:34:14.806Z,25.50
2019-02-14T18:36:45.958Z,26.20
2019-02-14T18:39:21.204Z,25.60
2019-02-14T18:41:50.889Z,27.33
2019-02-14T18:44:20.524Z,27.05
2019-02-14T18:46:53.316Z,27.40
2019-02-14T18:49:26.187Z,33.00
2019-02-14T18:51:56.031Z,34.93
2019-02-14T18:54:26.471Z,32.27
2019-02-14T18:56:56.437Z,31.70
2019-02-14T18:59:25.866Z,34.60
2019-02-14T19:01:56.771Z,35.33
2019-02-14T19:04:27.711Z,40.92
2019-02-14T19:06:59.467Z,32.73
2019-02-14T19:09:30.317Z,31.67
2019-02-14T19:12:00.028Z,30.97
2019-02-14T19:14:29.422Z,30.87
2019-02-14T19:16:58.971Z,32.13
2019-02-14T19:19:30.066Z,29.60
2019-02-14T19:21:59.656Z,27.10
2019-02-14T19:24:30.258Z,28.42
2019-02-14T19:27:01.789Z,27.30
2019-02-14T19:29:32.617Z,27.67
2019-02-14T19:32:03.073Z,27.37
2019-02-14T19:34:32.531Z,28.33
2019-02-14T19:37:01.921Z,28.70
2019-02-14T19:39:31.607Z,26.87
2019-02-14T19:42:05.757Z,28.77
2019-02-14T19:44:38.930Z,28.65
2019-02-14T19:47:08.956Z,29.80
2019-02-14T19:49:41.196Z,29.97
2019-02-14T19:52:12.432Z,28.47
2019-02-14T19:54:41.890Z,30.37
2019-02-14T19:57:12.555Z,27.27
2019-02-14T19:59:42.186Z,31.50
2019-02-14T20:02:12.436Z,26.83
2019-02-14T20:04:42.110Z,24.27
2019-02-14T20:07:11.572Z,24.30
2019-02-14T20:09:41.758Z,22.73
2019-02-14T20:12:11.201Z,24.30
2019-02-14T20:14:40.907Z,23.37
2019-02-14T20:17:12.080Z,23.27
2019-02-14T20:19:41.646Z,23.60
2019-02-14T20:22:13.627Z,22.53
2019-02-14T20:24:43.415Z,21.90
2019-02-14T20:27:15.964Z,21.63
2019-02-14T20:29:47.222Z,23.13
2019-02-14T20:32:21.309Z,21.07
2019-02-14T20:34:52.226Z,23.20
2019-02-14T20:37:22.074Z,22.90
2019-02-14T20:39:52.048Z,22.13
2019-02-14T20:42:23.372Z,25.43
2019-02-14T20:44:53.261Z,27.80
2019-02-14T20:47:26.415Z,33.90
2019-02-14T20:49:55.804Z,33.73
2019-02-14T20:52:25.403Z,33.45
2019-02-14T20:54:55.835Z,28.77
2019-02-14T20:57:26.423Z,24.00
2019-02-14T20:59:55.827Z,21.47
2019-02-14T21:02:29.451Z,20.15
2019-02-14T21:05:00.587Z,20.60
2019-02-14T21:07:29.985Z,19.05
2019-02-14T21:10:00.355Z,20.63
2019-02-14T21:12:29.770Z,26.75
2019-02-14T21:14:59.548Z,27.20
2019-02-14T21:17:29.645Z,32.03
2019-02-14T21:19:59.246Z,28.73
2019-02-14T21:22:29.656Z,22.02
2019-02-14T21:24:59.325Z,25.25
2019-02-14T21:27:28.841Z,20.88
2019-02-14T21:29:58.281Z,22.97
2019-02-14T21:32:28.394Z,22.30
2019-02-14T21:34:57.934Z,21.43
2019-02-14T21:37:27.691Z,21.48
2019-02-14T21:39:57.242Z,22.93
2019-02-14T21:42:29.215Z,21.50
2019-02-14T21:44:57.673Z,21.37
2019-02-14T21:47:27.086Z,21.77
2019-02-14T21:49:57.209Z,21.17
2019-02-14T21:52:33.649Z,22.93
2019-02-14T21:55:06.547Z,22.58
2019-02-14T21:57:35.954Z,24.80
2019-02-14T22:00:09.947Z,23.50
2019-02-14T22:02:39.367Z,22.00
2019-02-14T22:05:09.435Z,22.07
2019-02-14T22:07:39.200Z,23.23
2019-02-14T22:10:10.688Z,22.83
2019-02-14T22:12:42.120Z,27.67
2019-02-14T22:15:16.001Z,25.30
2019-02-14T22:17:46.507Z,25.57
2019-02-14T22:20:18.917Z,23.73
2019-02-14T22:22:50.668Z,26.47
2019-02-14T22:25:20.623Z,27.95
2019-02-14T22:27:53.094Z,25.32
2019-02-14T22:30:22.565Z,29.43
2019-02-14T22:32:52.225Z,30.10
2019-02-14T22:35:25.025Z,26.60
2019-02-14T22:37:54.442Z,24.50
2019-02-14T22:40:25.687Z,23.70
2019-02-14T22:42:56.047Z,22.73
2019-02-14T22:45:26.219Z,23.63
2019-02-14T22:47:55.744Z,22.03
2019-02-14T22:50:26.105Z,25.40
2019-02-14T22:52:57.503Z,29.47
2019-02-14T22:55:26.904Z,26.30
2019-02-14T22:58:00.005Z,26.57
2019-02-14T23:00:43.198Z,26.67
2019-02-14T23:03:12.885Z,26.27
2019-02-14T23:05:42.692Z,27.23
2019-02-14T23:08:12.080Z,24.35
2019-02-14T23:10:41.869Z,24.93
2019-02-14T23:13:11.776Z,27.13
2019-02-14T23:15:41.202Z,26.40
2019-02-14T23:18:10.877Z,23.97
2019-02-14T23:20:40.422Z,24.07
2019-02-14T23:23:09.925Z,21.17
2019-02-14T23:25:39.697Z,22.67
2019-02-14T23:28:09.695Z,26.82
2019-02-14T23:30:39.057Z,24.70
2019-02-14T23:33:08.707Z,28.10
2019-02-14T23:35:38.085Z,26.00
2019-02-14T23:38:07.461Z,25.40
2019-02-14T23:40:36.993Z,24.47
2019-02-14T23:43:07.351Z,26.30
2019-02-14T23:45:36.985Z,24.57
2019-02-14T23:48:06.954Z,22.43
2019-02-14T23:50:36.409Z,23.77
2019-02-14T23:53:05.815Z,23.57
2019-02-14T23:55:37.616Z,22.20
2019-02-14T23:58:07.990Z,24.87
